LFKF/FSC METAR and TAF weather

Enter ICAO airport designator
Station Type Date Time Source
LFKF METAR 2019/10/15 04:00 UTC NOAA

LFKF 150400Z AUTO 05007KT 9999 FEW058 21/19 Q1014 TEMPO SHRA BKN015 SCT030CB


Station Type Date Time Source
LFKF Decoded METAR 2019/10/15 04:00 UTC NOAA

Figari, France (LFKF) 41-30N 009-06E 23M
Oct 15, 2019 - 12:00 AM EDT / 2019.10.15 0400 UTC
Wind: from the NE (050 degrees) at 8 MPH (7 KT):0
Visibility: greater than 7 mile(s):0
Sky conditions: mostly clear
Weather: Cumulonimbus clouds observed
Temperature: 69 F (21 C)
Dew Point: 66 F (19 C)
Relative Humidity: 88%
Pressure (altimeter): 29.94 in. Hg (1014 hPa)
ob: LFKF 150400Z AUTO 05007KT 9999 FEW058 21/19 Q1014 TEMPO SHRA BKN015 SCT030CB
cycle: 4

Station Type Date Time Source
LFKF TAF 2019/10/15 03:50 UTC NOAA

TAF LFKF 150200Z 1503/1603 06010KT 9999 BKN030 PROB40
TEMPO 1503/1509 SHRA BKN015 SCT030CB
BECMG 1510/1513 26015G30KT PROB40
TEMPO 1510/1517 4000 TSRA SCT020CB BKN033

Example: see airport list